Time,TemperatureF,DewpointF,PressureIn,WindDirection,WindDirectionDegrees,WindSpeedMPH,WindSpeedGustMPH,Humidity,HourlyPrecipIn,Conditions,Clouds,dailyrainin,SoftwareType,DateUTC
2013-08-02 00:01:00,67.4,65.3,30.00,NW,321,0.0,0.0,93,0.00,,,0.00,Wunderground v.1.13,2013-08-02 04:01:00,
2013-08-02 00:02:00,67.3,65.2,30.00,NW,321,0.0,0.0,93,0.00,,,0.00,Wunderground v.1.13,2013-08-02 04:02:00,
2013-08-02 00:03:00,67.3,65.2,30.00,NW,321,0.0,0.0,93,0.00,,,0.00,Wunderground v.1.13,2013-08-02 04:03:00,
2013-08-02 00:05:00,67.2,65.1,30.00,NW,321,0.0,0.0,93,0.00,,,0.00,Wunderground v.1.13,2013-08-02 04:05:00,
2013-08-02 00:10:00,67.2,65.1,30.00,NW,321,0.0,0.0,93,0.00,,,0.00,Wunderground v.1.13,2013-08-02 04:10:00,
2013-08-02 00:15:00,67.0,64.9,30.00,NW,321,0.0,0.0,93,0.00,,,0.00,Wunderground v.1.13,2013-08-02 04:15:00,
2013-08-02 00:19:00,66.9,64.8,30.01,NW,321,0.0,0.0,93,0.00,,,0.00,Wunderground v.1.13,2013-08-02 04:19:00,
2013-08-02 00:25:00,66.7,64.6,30.01,NW,321,0.0,0.0,93,0.00,,,0.00,Wunderground v.1.13,2013-08-02 04:25:00,
2013-08-02 00:31:00,66.6,64.5,30.02,NW,321,0.0,0.0,93,0.00,,,0.00,Wunderground v.1.13,2013-08-02 04:31:00,
2013-08-02 00:37:00,66.4,64.3,30.02,NW,321,0.0,0.0,93,0.00,,,0.00,Wunderground v.1.13,2013-08-02 04:37:00,
2013-08-02 00:43:00,66.3,64.2,30.01,NW,321,0.0,0.0,93,0.00,,,0.00,Wunderground v.1.13,2013-08-02 04:43:00,
2013-08-02 00:48:00,66.2,64.1,30.01,NW,321,0.0,0.0,93,0.00,,,0.00,Wunderground v.1.13,2013-08-02 04:48:00,
2013-08-02 00:54:00,66.0,63.9,30.01,NW,321,0.0,0.0,93,0.00,,,0.00,Wunderground v.1.13,2013-08-02 04:54:00,
2013-08-02 00:59:00,65.9,63.8,30.01,NW,321,0.0,0.0,93,0.00,,,0.00,Wunderground v.1.13,2013-08-02 04:59:00,
2013-08-02 01:05:00,65.7,63.6,30.02,NW,321,0.0,0.0,93,0.00,,,0.00,Wunderground v.1.13,2013-08-02 05:05:00,
2013-08-02 01:10:00,65.7,63.6,30.02,NW,321,0.0,0.0,93,0.00,,,0.00,Wunderground v.1.13,2013-08-02 05:10:00,
2013-08-02 01:16:00,65.7,63.9,30.01,NW,321,0.0,0.0,94,0.00,,,0.00,Wunderground v.1.13,2013-08-02 05:16:00,
2013-08-02 01:22:00,65.7,63.9,30.01,NW,321,0.0,0.0,94,0.00,,,0.00,Wunderground v.1.13,2013-08-02 05:22:00,
2013-08-02 01:28:00,65.6,63.8,30.02,NW,321,0.0,0.0,94,0.00,,,0.00,Wunderground v.1.13,2013-08-02 05:28:00,
2013-08-02 01:33:00,65.5,63.7,30.02,NW,321,0.0,0.0,94,0.00,,,0.00,Wunderground v.1.13,2013-08-02 05:33:00,
2013-08-02 01:38:00,65.5,63.7,30.02,NW,321,0.0,0.0,94,0.00,,,0.00,Wunderground v.1.13,2013-08-02 05:38:00,
2013-08-02 01:43:00,65.4,63.6,30.01,NW,321,0.0,0.0,94,0.00,,,0.00,Wunderground v.1.13,2013-08-02 05:43:00,
2013-08-02 01:49:00,65.3,63.5,30.01,NW,321,0.0,0.0,94,0.00,,,0.00,Wunderground v.1.13,2013-08-02 05:49:00,
2013-08-02 01:54:00,65.4,63.9,30.02,NW,321,0.0,0.0,95,0.00,,,0.00,Wunderground v.1.13,2013-08-02 05:54:00,
2013-08-02 02:00:00,65.3,63.8,30.01,NW,321,0.0,0.0,95,0.00,,,0.00,Wunderground v.1.13,2013-08-02 06:00:00,
2013-08-02 02:05:00,65.2,63.7,30.01,NW,321,0.0,0.0,95,0.00,,,0.00,Wunderground v.1.13,2013-08-02 06:05:00,
2013-08-02 02:10:00,65.1,63.6,30.00,NW,321,0.0,0.0,95,0.00,,,0.00,Wunderground v.1.13,2013-08-02 06:10:00,
2013-08-02 02:15:00,65.0,63.5,30.00,NW,321,0.0,0.0,95,0.00,,,0.00,Wunderground v.1.13,2013-08-02 06:15:00,
2013-08-02 02:20:00,64.9,63.4,30.00,NW,321,0.0,0.0,95,0.00,,,0.00,Wunderground v.1.13,2013-08-02 06:20:00,
2013-08-02 02:26:00,64.8,63.3,30.00,NW,321,0.0,0.0,95,0.00,,,0.00,Wunderground v.1.13,2013-08-02 06:26:00,
2013-08-02 02:31:00,64.8,63.3,30.00,NW,321,0.0,0.0,95,0.00,,,0.00,Wunderground v.1.13,2013-08-02 06:31:00,
2013-08-02 02:36:00,64.7,63.2,30.00,NW,321,0.0,0.0,95,0.00,,,0.00,Wunderground v.1.13,2013-08-02 06:36:00,
2013-08-02 02:42:00,64.5,63.0,30.00,NW,321,0.0,0.0,95,0.00,,,0.00,Wunderground v.1.13,2013-08-02 06:42:00,
2013-08-02 02:47:00,64.4,62.9,30.00,NW,321,0.0,0.0,95,0.00,,,0.00,Wunderground v.1.13,2013-08-02 06:47:00,
2013-08-02 02:53:00,64.3,62.8,30.00,NW,321,0.0,0.0,95,0.00,,,0.00,Wunderground v.1.13,2013-08-02 06:53:00,
2013-08-02 02:59:00,64.2,62.7,29.99,NW,321,0.0,0.0,95,0.00,,,0.00,Wunderground v.1.13,2013-08-02 06:59:00,
2013-08-02 03:04:00,64.1,62.6,29.99,NW,321,0.0,0.0,95,0.00,,,0.00,Wunderground v.1.13,2013-08-02 07:04:00,
2013-08-02 03:09:00,64.0,62.5,29.99,NW,321,0.0,0.0,95,0.00,,,0.00,Wunderground v.1.13,2013-08-02 07:09:00,
2013-08-02 03:15:00,63.8,62.3,29.99,NW,321,0.0,0.0,95,0.00,,,0.00,Wunderground v.1.13,2013-08-02 07:15:00,
2013-08-02 03:21:00,63.7,62.2,30.00,NW,321,0.0,0.0,95,0.00,,,0.00,Wunderground v.1.13,2013-08-02 07:21:00,
2013-08-02 03:27:00,63.6,62.1,30.00,NW,321,0.0,0.0,95,0.00,,,0.00,Wunderground v.1.13,2013-08-02 07:27:00,
2013-08-02 03:32:00,63.6,62.1,30.00,NW,321,0.0,0.0,95,0.00,,,0.00,Wunderground v.1.13,2013-08-02 07:32:00,
2013-08-02 03:37:00,63.5,62.0,30.00,NW,321,0.0,0.0,95,0.00,,,0.00,Wunderground v.1.13,2013-08-02 07:37:00,
2013-08-02 03:43:00,63.5,62.0,30.00,NW,321,0.0,0.0,95,0.00,,,0.00,Wunderground v.1.13,2013-08-02 07:43:00,
2013-08-02 03:48:00,63.4,61.9,30.01,NW,321,0.0,0.0,95,0.00,,,0.00,Wunderground v.1.13,2013-08-02 07:48:00,
2013-08-02 03:54:00,63.4,61.9,30.01,NW,321,0.0,0.0,95,0.00,,,0.00,Wunderground v.1.13,2013-08-02 07:54:00,
2013-08-02 03:59:00,63.3,61.8,30.01,NW,321,0.0,0.0,95,0.00,,,0.00,Wunderground v.1.13,2013-08-02 07:59:00,
2013-08-02 04:05:00,63.4,62.2,30.01,NW,321,0.0,0.0,96,0.00,,,0.00,Wunderground v.1.13,2013-08-02 08:05:00,
2013-08-02 04:11:00,63.3,62.1,30.01,NW,321,0.0,0.0,96,0.00,,,0.00,Wunderground v.1.13,2013-08-02 08:11:00,
2013-08-02 04:17:00,63.3,62.1,30.00,NW,321,0.0,0.0,96,0.00,,,0.00,Wunderground v.1.13,2013-08-02 08:17:00,
2013-08-02 04:22:00,63.4,62.2,30.00,NW,321,0.0,0.0,96,0.00,,,0.00,Wunderground v.1.13,2013-08-02 08:22:00,
2013-08-02 04:27:00,63.4,62.2,30.00,NW,321,0.0,0.0,96,0.00,,,0.00,Wunderground v.1.13,2013-08-02 08:27:00,
2013-08-02 04:32:00,63.3,62.1,30.00,NW,321,0.0,0.0,96,0.00,,,0.00,Wunderground v.1.13,2013-08-02 08:32:00,
2013-08-02 04:37:00,63.3,62.1,30.00,NW,321,0.0,0.0,96,0.00,,,0.00,Wunderground v.1.13,2013-08-02 08:37:00,
2013-08-02 04:42:00,63.2,62.0,30.01,NW,321,0.0,0.0,96,0.00,,,0.00,Wunderground v.1.13,2013-08-02 08:42:00,
2013-08-02 04:47:00,63.2,62.0,30.01,NW,321,0.0,0.0,96,0.00,,,0.00,Wunderground v.1.13,2013-08-02 08:47:00,
2013-08-02 04:53:00,63.1,61.9,30.01,NW,321,0.0,0.0,96,0.00,,,0.00,Wunderground v.1.13,2013-08-02 08:53:00,
2013-08-02 04:58:00,63.0,61.8,30.01,NW,321,0.0,0.0,96,0.00,,,0.00,Wunderground v.1.13,2013-08-02 08:58:00,
2013-08-02 05:03:00,63.0,61.8,30.01,NW,321,0.0,0.0,96,0.00,,,0.00,Wunderground v.1.13,2013-08-02 09:03:00,
2013-08-02 05:09:00,63.0,61.8,30.01,NW,321,0.0,0.0,96,0.00,,,0.00,Wunderground v.1.13,2013-08-02 09:09:00,
2013-08-02 05:15:00,63.0,61.8,30.01,NW,321,0.0,0.0,96,0.00,,,0.00,Wunderground v.1.13,2013-08-02 09:15:00,
2013-08-02 05:20:00,62.9,61.7,30.02,NW,321,0.0,0.0,96,0.00,,,0.00,Wunderground v.1.13,2013-08-02 09:20:00,
2013-08-02 05:26:00,62.8,61.6,30.02,NW,321,0.0,0.0,96,0.00,,,0.00,Wunderground v.1.13,2013-08-02 09:26:00,
2013-08-02 05:31:00,62.7,61.5,30.02,NW,321,0.0,0.0,96,0.00,,,0.00,Wunderground v.1.13,2013-08-02 09:31:00,
2013-08-02 05:36:00,62.6,61.4,30.02,NW,321,0.0,0.0,96,0.00,,,0.00,Wunderground v.1.13,2013-08-02 09:36:00,
2013-08-02 05:42:00,62.5,61.3,30.02,NW,321,0.0,0.0,96,0.00,,,0.00,Wunderground v.1.13,2013-08-02 09:42:00,
2013-08-02 05:48:00,62.5,61.3,30.01,NW,321,0.0,0.0,96,0.00,,,0.00,Wunderground v.1.13,2013-08-02 09:48:00,
2013-08-02 05:53:00,62.5,61.3,30.01,NW,321,0.0,0.0,96,0.00,,,0.00,Wunderground v.1.13,2013-08-02 09:53:00,
2013-08-02 05:59:00,62.4,61.2,30.02,NW,321,0.0,0.0,96,0.00,,,0.00,Wunderground v.1.13,2013-08-02 09:59:00,
2013-08-02 06:04:00,62.4,61.2,30.02,NW,321,0.0,0.0,96,0.00,,,0.00,Wunderground v.1.13,2013-08-02 10:04:00,
2013-08-02 06:09:00,62.3,61.1,30.02,NW,321,0.0,0.0,96,0.00,,,0.00,Wunderground v.1.13,2013-08-02 10:09:00,
2013-08-02 06:15:00,62.1,60.9,30.02,NW,321,0.0,0.0,96,0.00,,,0.00,Wunderground v.1.13,2013-08-02 10:15:00,
2013-08-02 06:20:00,62.0,60.8,30.02,NW,321,0.0,0.0,96,0.00,,,0.00,Wunderground v.1.13,2013-08-02 10:20:00,
2013-08-02 06:26:00,61.8,60.6,30.03,NW,321,0.0,0.0,96,0.00,,,0.00,Wunderground v.1.13,2013-08-02 10:26:00,
2013-08-02 06:31:00,61.7,60.5,30.03,NW,321,0.0,0.0,96,0.00,,,0.00,Wunderground v.1.13,2013-08-02 10:31:00,
2013-08-02 06:37:00,61.6,60.4,30.03,NW,321,0.0,0.0,96,0.00,,,0.00,Wunderground v.1.13,2013-08-02 10:37:00,
2013-08-02 06:42:00,61.5,60.3,30.03,NW,321,0.0,0.0,96,0.00,,,0.00,Wunderground v.1.13,2013-08-02 10:42:00,
2013-08-02 06:47:00,61.4,60.2,30.03,NW,321,0.0,0.0,96,0.00,,,0.00,Wunderground v.1.13,2013-08-02 10:47:00,
2013-08-02 06:52:00,61.3,60.2,30.04,NW,321,0.0,0.0,96,0.00,,,0.00,Wunderground v.1.13,2013-08-02 10:52:00,
2013-08-02 06:57:00,61.3,60.2,30.04,NW,321,0.0,0.0,96,0.00,,,0.00,Wunderground v.1.13,2013-08-02 10:57:00,
2013-08-02 07:03:00,61.3,60.2,30.04,NW,321,0.0,0.0,96,0.00,,,0.00,Wunderground v.1.13,2013-08-02 11:03:00,
2013-08-02 07:08:00,61.2,60.1,30.04,NW,321,0.0,0.0,96,0.00,,,0.00,Wunderground v.1.13,2013-08-02 11:08:00,
2013-08-02 07:14:00,61.3,60.4,30.04,NW,321,0.0,0.0,97,0.00,,,0.00,Wunderground v.1.13,2013-08-02 11:14:00,
2013-08-02 07:20:00,61.3,60.4,30.04,NW,321,0.0,0.0,97,0.00,,,0.00,Wunderground v.1.13,2013-08-02 11:20:00,
2013-08-02 07:25:00,61.4,60.5,30.04,NW,321,0.0,0.0,97,0.00,,,0.00,Wunderground v.1.13,2013-08-02 11:25:00,
2013-08-02 07:30:00,61.6,60.7,30.04,NW,321,0.0,0.0,97,0.00,,,0.00,Wunderground v.1.13,2013-08-02 11:30:00,
2013-08-02 07:35:00,61.9,61.0,30.04,NW,321,0.0,0.0,97,0.00,,,0.00,Wunderground v.1.13,2013-08-02 11:35:00,
2013-08-02 07:41:00,62.2,61.3,30.05,NW,321,0.0,0.0,97,0.00,,,0.00,Wunderground v.1.13,2013-08-02 11:41:00,
2013-08-02 07:46:00,62.5,61.6,30.05,NW,321,0.0,0.0,97,0.00,,,0.00,Wunderground v.1.13,2013-08-02 11:46:00,
2013-08-02 07:52:00,63.0,62.4,30.05,NW,321,0.0,0.0,98,0.00,,,0.00,Wunderground v.1.13,2013-08-02 11:52:00,
2013-08-02 07:57:00,63.5,62.9,30.05,NW,321,0.0,0.0,98,0.00,,,0.00,Wunderground v.1.13,2013-08-02 11:57:00,
2013-08-02 08:03:00,64.0,63.4,30.05,NW,321,0.0,0.0,98,0.00,,,0.00,Wunderground v.1.13,2013-08-02 12:03:00,
2013-08-02 08:08:00,64.6,64.0,30.05,NW,321,0.0,0.0,98,0.00,,,0.00,Wunderground v.1.13,2013-08-02 12:08:00,
2013-08-02 08:14:00,65.2,64.6,30.05,NW,321,0.0,0.0,98,0.00,,,0.00,Wunderground v.1.13,2013-08-02 12:14:00,
2013-08-02 08:20:00,65.8,65.2,30.05,NW,321,0.0,0.0,98,0.00,,,0.00,Wunderground v.1.13,2013-08-02 12:20:00,
2013-08-02 08:25:00,66.3,65.7,30.05,NW,321,0.0,0.0,98,0.00,,,0.00,Wunderground v.1.13,2013-08-02 12:25:00,
2013-08-02 08:30:00,66.8,66.5,30.05,NW,321,0.0,0.0,99,0.00,,,0.00,Wunderground v.1.13,2013-08-02 12:30:00,
2013-08-02 08:36:00,67.2,66.6,30.05,NW,321,0.0,0.0,98,0.00,,,0.00,Wunderground v.1.13,2013-08-02 12:36:00,
2013-08-02 08:41:00,67.6,67.3,30.05,NW,321,0.0,0.0,99,0.00,,,0.00,Wunderground v.1.13,2013-08-02 12:41:00,
2013-08-02 08:46:00,67.9,67.6,30.05,NW,321,0.0,0.0,99,0.00,,,0.00,Wunderground v.1.13,2013-08-02 12:46:00,
2013-08-02 08:52:00,68.2,67.9,30.06,NW,321,0.0,0.0,99,0.00,,,0.00,Wunderground v.1.13,2013-08-02 12:52:00,
2013-08-02 08:58:00,68.6,68.0,30.06,NW,321,0.0,0.0,98,0.00,,,0.00,Wunderground v.1.13,2013-08-02 12:58:00,
2013-08-02 09:03:00,69.2,68.9,30.07,NW,321,0.0,0.0,99,0.00,,,0.00,Wunderground v.1.13,2013-08-02 13:03:00,
2013-08-02 09:09:00,69.8,69.5,30.06,NW,321,0.0,0.0,99,0.00,,,0.00,Wunderground v.1.13,2013-08-02 13:09:00,
2013-08-02 09:14:00,70.0,69.4,30.06,NW,321,0.0,0.0,98,0.00,,,0.00,Wunderground v.1.13,2013-08-02 13:14:00,
2013-08-02 09:20:00,70.2,69.6,30.06,NW,321,0.0,0.0,98,0.00,,,0.00,Wunderground v.1.13,2013-08-02 13:20:00,
2013-08-02 09:26:00,70.4,69.5,30.06,NW,321,0.0,1.0,97,0.00,,,0.00,Wunderground v.1.13,2013-08-02 13:26:00,
2013-08-02 09:32:00,71.2,70.3,30.06,NW,321,0.0,0.0,97,0.00,,,0.00,Wunderground v.1.13,2013-08-02 13:32:00,
2013-08-02 09:38:00,72.0,70.5,30.06,NW,321,0.0,1.0,95,0.00,,,0.00,Wunderground v.1.13,2013-08-02 13:38:00,
2013-08-02 09:43:00,72.6,70.1,30.06,NW,321,0.0,0.0,92,0.00,,,0.00,Wunderground v.1.13,2013-08-02 13:43:00,
2013-08-02 09:48:00,73.0,69.2,30.06,NW,321,1.0,2.0,88,0.00,,,0.00,Wunderground v.1.13,2013-08-02 13:48:00,
2013-08-02 09:54:00,73.9,69.4,30.06,NW,321,1.0,4.0,86,0.00,,,0.00,Wunderground v.1.13,2013-08-02 13:54:00,
2013-08-02 09:59:00,74.8,68.9,30.06,NW,321,1.0,4.0,82,0.00,,,0.00,Wunderground v.1.13,2013-08-02 13:59:00,
2013-08-02 10:05:00,75.4,68.4,30.06,North,5,2.0,2.0,79,0.00,,,0.00,Wunderground v.1.13,2013-08-02 14:05:00,
2013-08-02 10:11:00,75.9,69.3,30.06,North,9,2.0,2.0,80,0.00,,,0.00,Wunderground v.1.13,2013-08-02 14:11:00,
2013-08-02 10:16:00,76.7,69.7,30.06,North,9,1.0,1.0,79,0.00,,,0.00,Wunderground v.1.13,2013-08-02 14:16:00,
2013-08-02 10:21:00,77.1,69.7,30.06,NE,35,1.0,2.0,78,0.00,,,0.00,Wunderground v.1.13,2013-08-02 14:21:00,
2013-08-02 10:27:00,78.0,70.2,30.06,NE,36,1.0,3.0,77,0.00,,,0.00,Wunderground v.1.13,2013-08-02 14:27:00,
2013-08-02 10:33:00,78.5,69.5,30.06,ENE,64,2.0,7.0,74,0.00,,,0.00,Wunderground v.1.13,2013-08-02 14:33:00,
2013-08-02 10:38:00,78.4,69.0,30.06,ENE,76,3.0,6.0,73,0.00,,,0.00,Wunderground v.1.13,2013-08-02 14:38:00,
2013-08-02 10:43:00,78.2,67.2,30.06,East,82,3.0,4.0,69,0.00,,,0.00,Wunderground v.1.13,2013-08-02 14:43:00,
2013-08-02 10:48:00,78.4,68.6,30.06,East,82,2.0,3.0,72,0.00,,,0.00,Wunderground v.1.13,2013-08-02 14:48:00,
2013-08-02 10:54:00,78.7,68.5,30.06,East,83,1.0,2.0,71,0.00,,,0.00,Wunderground v.1.13,2013-08-02 14:54:00,
2013-08-02 10:59:00,78.9,68.7,30.06,East,85,1.0,6.0,71,0.00,,,0.00,Wunderground v.1.13,2013-08-02 14:59:00,
2013-08-02 11:05:00,79.2,67.7,30.07,East,85,1.0,1.0,68,0.00,,,0.00,Wunderground v.1.13,2013-08-02 15:05:00,
2013-08-02 11:10:00,79.9,68.4,30.07,East,85,1.0,1.0,68,0.00,,,0.00,Wunderground v.1.13,2013-08-02 15:10:00,
2013-08-02 11:16:00,80.2,68.7,30.07,East,86,1.0,1.0,68,0.00,,,0.00,Wunderground v.1.13,2013-08-02 15:16:00,
2013-08-02 11:21:00,80.1,68.2,30.07,East,86,1.0,1.0,67,0.00,,,0.00,Wunderground v.1.13,2013-08-02 15:21:00,
2013-08-02 11:27:00,80.0,68.1,30.07,East,86,1.0,2.0,67,0.00,,,0.00,Wunderground v.1.13,2013-08-02 15:27:00,
2013-08-02 11:32:00,80.0,67.6,30.07,East,86,1.0,2.0,66,0.00,,,0.00,Wunderground v.1.13,2013-08-02 15:32:00,
2013-08-02 11:38:00,80.1,68.2,30.07,East,86,0.0,2.0,67,0.00,,,0.00,Wunderground v.1.13,2013-08-02 15:38:00,
2013-08-02 11:43:00,80.4,68.0,30.07,East,87,1.0,5.0,66,0.00,,,0.00,Wunderground v.1.13,2013-08-02 15:43:00,
2013-08-02 11:49:00,80.9,68.0,30.08,East,87,1.0,1.0,65,0.00,,,0.00,Wunderground v.1.13,2013-08-02 15:49:00,
2013-08-02 11:55:00,81.1,67.8,30.07,East,87,1.0,2.0,64,0.00,,,0.00,Wunderground v.1.13,2013-08-02 15:55:00,
2013-08-02 12:00:00,81.3,67.0,30.07,East,88,1.0,6.0,62,0.00,,,0.00,Wunderground v.1.13,2013-08-02 16:00:00,
2013-08-02 12:05:00,81.2,66.9,30.07,East,88,1.0,1.0,62,0.00,,,0.00,Wunderground v.1.13,2013-08-02 16:05:00,
2013-08-02 12:11:00,81.4,67.1,30.07,East,88,1.0,1.0,62,0.00,,,0.00,Wunderground v.1.13,2013-08-02 16:11:00,
2013-08-02 12:16:00,82.0,67.2,30.07,East,86,1.0,3.0,61,0.00,,,0.00,Wunderground v.1.13,2013-08-02 16:16:00,
2013-08-02 12:21:00,82.7,67.9,30.07,East,86,1.0,1.0,61,0.00,,,0.00,Wunderground v.1.13,2013-08-02 16:21:00,
2013-08-02 12:26:00,83.5,68.6,30.07,East,86,1.0,1.0,61,0.00,,,0.00,Wunderground v.1.13,2013-08-02 16:26:00,
2013-08-02 12:32:00,83.4,68.1,30.07,East,86,1.0,5.0,60,0.00,,,0.00,Wunderground v.1.13,2013-08-02 16:32:00,
2013-08-02 12:37:00,83.3,67.5,30.07,East,88,1.0,1.0,59,0.00,,,0.00,Wunderground v.1.13,2013-08-02 16:37:00,
2013-08-02 12:43:00,83.0,67.7,30.07,East,88,1.0,1.0,60,0.00,,,0.00,Wunderground v.1.13,2013-08-02 16:43:00,
2013-08-02 12:49:00,82.7,68.8,30.07,East,88,1.0,3.0,63,0.00,,,0.00,Wunderground v.1.13,2013-08-02 16:49:00,
2013-08-02 12:54:00,83.0,69.1,30.07,North,5,2.0,6.0,63,0.00,,,0.00,Wunderground v.1.13,2013-08-02 16:54:00,
2013-08-02 12:59:00,82.3,67.5,30.07,North,360,3.0,6.0,61,0.00,,,0.00,Wunderground v.1.13,2013-08-02 16:59:00,
2013-08-02 13:05:00,81.8,68.4,30.07,North,355,3.0,3.0,64,0.00,,,0.00,Wunderground v.1.13,2013-08-02 17:05:00,
2013-08-02 13:11:00,81.6,68.2,30.07,North,355,2.0,5.0,64,0.00,,,0.00,Wunderground v.1.13,2013-08-02 17:11:00,
2013-08-02 13:17:00,81.1,67.8,30.06,NNE,29,4.0,5.0,64,0.00,,,0.00,Wunderground v.1.13,2013-08-02 17:17:00,
2013-08-02 13:22:00,81.4,68.1,30.06,NNE,31,4.0,8.0,64,0.00,,,0.00,Wunderground v.1.13,2013-08-02 17:22:00,
2013-08-02 13:28:00,81.6,67.8,30.06,NNE,31,3.0,3.0,63,0.00,,,0.00,Wunderground v.1.13,2013-08-02 17:28:00,
2013-08-02 13:33:00,82.4,68.1,30.06,NNE,30,2.0,4.0,62,0.00,,,0.00,Wunderground v.1.13,2013-08-02 17:33:00,
2013-08-02 13:38:00,83.1,68.3,30.06,NNE,25,1.0,5.0,61,0.00,,,0.00,Wunderground v.1.13,2013-08-02 17:38:00,
2013-08-02 13:43:00,83.1,68.3,30.06,North,350,3.0,9.0,61,0.00,,,0.00,Wunderground v.1.13,2013-08-02 17:43:00,
2013-08-02 13:49:00,83.1,69.2,30.06,North,349,4.0,5.0,63,0.00,,,0.00,Wunderground v.1.13,2013-08-02 17:49:00,
2013-08-02 13:54:00,83.6,68.7,30.06,North,350,2.0,4.0,61,0.00,,,0.00,Wunderground v.1.13,2013-08-02 17:54:00,
2013-08-02 14:00:00,84.1,68.2,30.06,NW,319,3.0,3.0,59,0.00,,,0.00,Wunderground v.1.13,2013-08-02 18:00:00,
2013-08-02 14:05:00,84.1,67.7,30.06,NNW,334,3.0,3.0,58,0.00,,,0.00,Wunderground v.1.13,2013-08-02 18:05:00,
2013-08-02 14:10:00,83.9,68.0,30.06,NNW,328,3.0,5.0,59,0.00,,,0.00,Wunderground v.1.13,2013-08-02 18:10:00,
2013-08-02 14:16:00,84.4,67.5,30.06,NNW,336,4.0,4.0,57,0.00,,,0.00,Wunderground v.1.13,2013-08-02 18:16:00,
2013-08-02 14:22:00,85.0,67.5,30.06,NNW,334,3.0,3.0,56,0.00,,,0.00,Wunderground v.1.13,2013-08-02 18:22:00,
2013-08-02 14:27:00,85.3,65.7,30.06,NNW,334,3.0,5.0,52,0.00,,,0.00,Wunderground v.1.13,2013-08-02 18:27:00,
2013-08-02 14:33:00,86.1,63.5,30.05,NNW,333,3.0,5.0,47,0.00,,,0.00,Wunderground v.1.13,2013-08-02 18:33:00,
2013-08-02 14:38:00,86.9,65.4,30.05,NNW,333,3.0,3.0,49,0.00,,,0.00,Wunderground v.1.13,2013-08-02 18:38:00,
2013-08-02 14:43:00,87.6,64.3,30.05,NNW,333,3.0,5.0,46,0.00,,,0.00,Wunderground v.1.13,2013-08-02 18:43:00,
2013-08-02 14:49:00,87.8,64.4,30.05,NNW,333,2.0,2.0,46,0.00,,,0.00,Wunderground v.1.13,2013-08-02 18:49:00,
2013-08-02 14:54:00,87.5,64.8,30.06,NNW,333,0.0,2.0,47,0.00,,,0.00,Wunderground v.1.13,2013-08-02 18:54:00,
2013-08-02 15:00:00,87.6,66.1,30.05,NNW,333,0.0,0.0,49,0.00,,,0.00,Wunderground v.1.13,2013-08-02 19:00:00,
2013-08-02 15:05:00,87.7,65.0,30.05,NNW,333,0.0,0.0,47,0.00,,,0.00,Wunderground v.1.13,2013-08-02 19:05:00,
2013-08-02 15:11:00,87.9,65.8,30.05,NNW,333,0.0,1.0,48,0.00,,,0.00,Wunderground v.1.13,2013-08-02 19:11:00,
2013-08-02 15:17:00,87.6,65.5,30.05,NNW,333,1.0,1.0,48,0.00,,,0.00,Wunderground v.1.13,2013-08-02 19:17:00,
2013-08-02 15:23:00,86.5,65.1,30.05,NNE,24,2.0,7.0,49,0.00,,,0.00,Wunderground v.1.13,2013-08-02 19:23:00,
2013-08-02 15:28:00,85.0,64.3,30.05,NNE,24,4.0,4.0,50,0.00,,,0.00,Wunderground v.1.13,2013-08-02 19:28:00,
2013-08-02 15:34:00,84.2,64.7,30.05,NNE,24,2.0,5.0,52,0.00,,,0.00,Wunderground v.1.13,2013-08-02 19:34:00,
2013-08-02 15:39:00,83.9,64.9,30.05,NNE,24,2.0,5.0,53,0.00,,,0.00,Wunderground v.1.13,2013-08-02 19:39:00,
2013-08-02 15:44:00,83.9,64.4,30.05,North,9,2.0,5.0,52,0.00,,,0.00,Wunderground v.1.13,2013-08-02 19:44:00,
2013-08-02 15:50:00,84.1,64.0,30.05,North,9,3.0,6.0,51,0.00,,,0.00,Wunderground v.1.13,2013-08-02 19:50:00,
2013-08-02 15:56:00,83.9,62.1,30.05,North,10,2.0,3.0,48,0.00,,,0.00,Wunderground v.1.13,2013-08-02 19:56:00,
2013-08-02 16:01:00,84.2,63.5,30.05,North,10,1.0,2.0,50,0.00,,,0.00,Wunderground v.1.13,2013-08-02 20:01:00,
2013-08-02 16:07:00,84.5,63.2,30.05,North,10,1.0,1.0,49,0.00,,,0.00,Wunderground v.1.13,2013-08-02 20:07:00,
2013-08-02 16:12:00,84.6,63.9,30.05,NNE,16,1.0,4.0,50,0.00,,,0.00,Wunderground v.1.13,2013-08-02 20:12:00,
2013-08-02 16:17:00,84.6,63.9,30.05,NNE,16,1.0,1.0,50,0.00,,,0.00,Wunderground v.1.13,2013-08-02 20:17:00,
2013-08-02 16:23:00,85.0,64.3,30.05,NNE,16,1.0,4.0,50,0.00,,,0.00,Wunderground v.1.13,2013-08-02 20:23:00,
2013-08-02 16:28:00,84.8,64.7,30.05,NNE,16,1.0,5.0,51,0.00,,,0.00,Wunderground v.1.13,2013-08-02 20:28:00,
2013-08-02 16:34:00,84.7,65.1,30.05,NNE,12,2.0,6.0,52,0.00,,,0.00,Wunderground v.1.13,2013-08-02 20:34:00,
2013-08-02 16:39:00,84.9,64.8,30.05,NNE,12,2.0,5.0,51,0.00,,,0.00,Wunderground v.1.13,2013-08-02 20:39:00,
2013-08-02 16:44:00,85.2,64.5,30.04,NNE,12,1.0,3.0,50,0.00,,,0.00,Wunderground v.1.13,2013-08-02 20:44:00,
2013-08-02 16:50:00,85.3,64.0,30.05,NNE,12,1.0,1.0,49,0.00,,,0.00,Wunderground v.1.13,2013-08-02 20:50:00,
2013-08-02 16:55:00,85.3,64.6,30.04,NNE,23,1.0,1.0,50,0.00,,,0.00,Wunderground v.1.13,2013-08-02 20:55:00,
2013-08-02 17:00:00,84.6,63.3,30.04,NNE,23,1.0,1.0,49,0.00,,,0.00,Wunderground v.1.13,2013-08-02 21:00:00,
2013-08-02 17:05:00,84.1,64.0,30.04,NNE,23,1.0,1.0,51,0.00,,,0.00,Wunderground v.1.13,2013-08-02 21:05:00,
2013-08-02 17:11:00,83.8,62.6,30.04,NNE,23,1.0,2.0,49,0.00,,,0.00,Wunderground v.1.13,2013-08-02 21:11:00,
2013-08-02 17:17:00,83.9,62.1,30.04,NNE,23,1.0,1.0,48,0.00,,,0.00,Wunderground v.1.13,2013-08-02 21:17:00,
2013-08-02 17:22:00,84.2,63.5,30.04,NNE,23,0.0,0.0,50,0.00,,,0.00,Wunderground v.1.13,2013-08-02 21:22:00,
2013-08-02 17:27:00,84.4,63.7,30.04,NNE,23,0.0,5.0,50,0.00,,,0.00,Wunderground v.1.13,2013-08-02 21:27:00,
2013-08-02 17:33:00,84.2,63.0,30.03,NNE,23,1.0,4.0,49,0.00,,,0.00,Wunderground v.1.13,2013-08-02 21:33:00,
2013-08-02 17:38:00,84.1,64.0,30.04,NNE,23,1.0,2.0,51,0.00,,,0.00,Wunderground v.1.13,2013-08-02 21:38:00,
2013-08-02 17:43:00,83.7,64.2,30.04,NNE,23,1.0,3.0,52,0.00,,,0.00,Wunderground v.1.13,2013-08-02 21:43:00,
2013-08-02 17:49:00,83.6,64.7,30.03,NNE,23,1.0,1.0,53,0.00,,,0.00,Wunderground v.1.13,2013-08-02 21:49:00,
2013-08-02 17:55:00,83.7,64.2,30.03,NNE,23,1.0,1.0,52,0.00,,,0.00,Wunderground v.1.13,2013-08-02 21:55:00,
2013-08-02 18:00:00,83.6,64.7,30.02,NNE,23,1.0,1.0,53,0.00,,,0.00,Wunderground v.1.13,2013-08-02 22:00:00,
2013-08-02 18:05:00,83.2,64.8,30.03,NNE,23,1.0,1.0,54,0.00,,,0.00,Wunderground v.1.13,2013-08-02 22:05:00,
2013-08-02 18:10:00,82.7,65.9,30.03,NNE,23,0.0,0.0,57,0.00,,,0.00,Wunderground v.1.13,2013-08-02 22:10:00,
2013-08-02 18:16:00,82.2,66.4,30.02,NNE,23,0.0,1.0,59,0.00,,,0.00,Wunderground v.1.13,2013-08-02 22:16:00,
2013-08-02 18:22:00,81.7,66.9,30.02,NNE,23,1.0,1.0,61,0.00,,,0.00,Wunderground v.1.13,2013-08-02 22:22:00,
2013-08-02 18:28:00,81.3,66.1,30.02,NNE,23,0.0,0.0,60,0.00,,,0.00,Wunderground v.1.13,2013-08-02 22:28:00,
2013-08-02 18:33:00,81.0,66.3,30.02,NNE,23,0.0,2.0,61,0.00,,,0.00,Wunderground v.1.13,2013-08-02 22:33:00,
2013-08-02 18:39:00,80.8,66.1,30.02,NNE,23,1.0,1.0,61,0.00,,,0.00,Wunderground v.1.13,2013-08-02 22:39:00,
2013-08-02 18:45:00,80.6,66.4,30.02,NNE,23,1.0,1.0,62,0.00,,,0.00,Wunderground v.1.13,2013-08-02 22:45:00,
2013-08-02 18:51:00,80.5,66.3,30.02,NNE,23,1.0,1.0,62,0.00,,,0.00,Wunderground v.1.13,2013-08-02 22:51:00,
2013-08-02 18:56:00,80.3,66.1,30.02,NNE,23,1.0,3.0,62,0.00,,,0.00,Wunderground v.1.13,2013-08-02 22:56:00,
2013-08-02 19:02:00,80.0,65.8,30.03,NNE,23,1.0,2.0,62,0.00,,,0.00,Wunderground v.1.13,2013-08-02 23:02:00,
2013-08-02 19:07:00,79.8,66.1,30.03,NNE,23,1.0,1.0,63,0.00,,,0.00,Wunderground v.1.13,2013-08-02 23:07:00,
2013-08-02 19:13:00,79.6,65.4,30.03,NNE,23,0.0,2.0,62,0.00,,,0.00,Wunderground v.1.13,2013-08-02 23:13:00,
2013-08-02 19:19:00,79.5,65.8,30.03,NNE,23,0.0,0.0,63,0.00,,,0.00,Wunderground v.1.13,2013-08-02 23:19:00,
2013-08-02 19:24:00,79.5,66.3,30.03,NNE,23,0.0,0.0,64,0.00,,,0.00,Wunderground v.1.13,2013-08-02 23:24:00,
2013-08-02 19:30:00,79.6,66.3,30.03,NNE,23,0.0,0.0,64,0.00,,,0.00,Wunderground v.1.13,2013-08-02 23:30:00,
2013-08-02 19:36:00,79.7,66.4,30.03,NNE,23,0.0,0.0,64,0.00,,,0.00,Wunderground v.1.13,2013-08-02 23:36:00,
2013-08-02 19:41:00,79.7,66.4,30.03,NNE,23,0.0,0.0,64,0.00,,,0.00,Wunderground v.1.13,2013-08-02 23:41:00,
2013-08-02 19:47:00,79.8,66.1,30.03,NNE,23,0.0,0.0,63,0.00,,,0.00,Wunderground v.1.13,2013-08-02 23:47:00,
2013-08-02 19:52:00,79.9,65.7,30.03,NNE,23,0.0,0.0,62,0.00,,,0.00,Wunderground v.1.13,2013-08-02 23:52:00,
2013-08-02 19:57:00,79.9,66.6,30.03,NNE,23,0.0,0.0,64,0.00,,,0.00,Wunderground v.1.13,2013-08-02 23:57:00,
2013-08-02 20:03:00,79.8,66.5,30.03,NNE,23,0.0,0.0,64,0.00,,,0.00,Wunderground v.1.13,2013-08-03 00:03:00,
2013-08-02 20:09:00,79.9,69.2,30.03,NNE,23,0.0,0.0,70,0.00,,,0.00,Wunderground v.1.13,2013-08-03 00:09:00,
2013-08-02 20:14:00,79.8,70.0,30.03,NNE,23,0.0,0.0,72,0.00,,,0.00,Wunderground v.1.13,2013-08-03 00:14:00,
2013-08-02 20:19:00,79.4,70.0,30.03,NNE,23,0.0,0.0,73,0.00,,,0.00,Wunderground v.1.13,2013-08-03 00:19:00,
2013-08-02 20:25:00,78.9,69.9,30.03,NNE,23,0.0,0.0,74,0.00,,,0.00,Wunderground v.1.13,2013-08-03 00:25:00,
2013-08-02 20:31:00,78.1,69.9,30.03,NNE,23,0.0,0.0,76,0.00,,,0.00,Wunderground v.1.13,2013-08-03 00:31:00,
2013-08-02 20:37:00,77.2,69.4,30.03,NNE,23,0.0,0.0,77,0.00,,,0.00,Wunderground v.1.13,2013-08-03 00:37:00,
2013-08-02 20:42:00,76.7,68.9,30.03,NNE,23,0.0,0.0,77,0.00,,,0.00,Wunderground v.1.13,2013-08-03 00:42:00,
2013-08-02 20:47:00,76.1,68.7,30.03,NNE,23,0.0,0.0,78,0.00,,,0.00,Wunderground v.1.13,2013-08-03 00:47:00,
2013-08-02 20:53:00,75.5,68.5,30.03,NNE,23,0.0,0.0,79,0.00,,,0.00,Wunderground v.1.13,2013-08-03 00:53:00,
2013-08-02 20:59:00,74.8,68.2,30.03,NNE,23,0.0,0.0,80,0.00,,,0.00,Wunderground v.1.13,2013-08-03 00:59:00,
2013-08-02 21:05:00,74.1,67.9,30.04,NNE,23,0.0,0.0,81,0.00,,,0.00,Wunderground v.1.13,2013-08-03 01:05:00,
2013-08-02 21:10:00,73.6,67.8,30.04,NNE,23,0.0,0.0,82,0.00,,,0.00,Wunderground v.1.13,2013-08-03 01:10:00,
2013-08-02 21:16:00,73.0,67.5,30.04,NNE,23,0.0,0.0,83,0.00,,,0.00,Wunderground v.1.13,2013-08-03 01:16:00,
2013-08-02 21:21:00,72.6,67.1,30.04,NNE,23,0.0,0.0,83,0.00,,,0.00,Wunderground v.1.13,2013-08-03 01:21:00,
2013-08-02 21:27:00,72.3,67.2,30.04,NNE,23,0.0,0.0,84,0.00,,,0.00,Wunderground v.1.13,2013-08-03 01:27:00,
2013-08-02 21:32:00,71.9,66.8,30.04,NNE,23,0.0,0.0,84,0.00,,,0.00,Wunderground v.1.13,2013-08-03 01:32:00,
2013-08-02 21:37:00,71.6,66.8,30.04,NNE,23,0.0,0.0,85,0.00,,,0.00,Wunderground v.1.13,2013-08-03 01:37:00,
2013-08-02 21:43:00,71.2,66.5,30.04,NNE,23,0.0,0.0,85,0.00,,,0.00,Wunderground v.1.13,2013-08-03 01:43:00,
2013-08-02 21:49:00,70.8,66.4,30.05,NNE,23,0.0,0.0,86,0.00,,,0.00,Wunderground v.1.13,2013-08-03 01:49:00,
2013-08-02 21:54:00,70.4,66.0,30.05,NNE,23,0.0,0.0,86,0.00,,,0.00,Wunderground v.1.13,2013-08-03 01:54:00,
2013-08-02 22:00:00,70.1,66.0,30.05,NNE,23,0.0,0.0,87,0.00,,,0.00,Wunderground v.1.13,2013-08-03 02:00:00,
2013-08-02 22:05:00,69.8,65.8,30.05,NNE,23,0.0,0.0,87,0.00,,,0.00,Wunderground v.1.13,2013-08-03 02:05:00,
2013-08-02 22:11:00,69.5,65.8,30.05,NNE,23,0.0,0.0,88,0.00,,,0.00,Wunderground v.1.13,2013-08-03 02:11:00,
2013-08-02 22:17:00,69.1,65.4,30.06,NNE,23,0.0,0.0,88,0.00,,,0.00,Wunderground v.1.13,2013-08-03 02:17:00,
2013-08-02 22:23:00,68.8,65.4,30.06,NNE,23,0.0,0.0,89,0.00,,,0.00,Wunderground v.1.13,2013-08-03 02:23:00,
2013-08-02 22:29:00,68.5,65.1,30.06,NNE,23,0.0,0.0,89,0.00,,,0.00,Wunderground v.1.13,2013-08-03 02:29:00,
2013-08-02 22:34:00,68.2,64.8,30.06,NNE,23,0.0,0.0,89,0.00,,,0.00,Wunderground v.1.13,2013-08-03 02:34:00,
2013-08-02 22:39:00,68.1,65.1,30.06,NNE,23,0.0,0.0,90,0.00,,,0.00,Wunderground v.1.13,2013-08-03 02:39:00,
2013-08-02 22:45:00,67.9,64.9,30.06,NNE,23,0.0,0.0,90,0.00,,,0.00,Wunderground v.1.13,2013-08-03 02:45:00,
2013-08-02 22:50:00,67.7,64.7,30.06,NNE,23,0.0,0.0,90,0.00,,,0.00,Wunderground v.1.13,2013-08-03 02:50:00,
2013-08-02 22:56:00,67.6,64.6,30.06,NNE,23,0.0,0.0,90,0.00,,,0.00,Wunderground v.1.13,2013-08-03 02:56:00,
2013-08-02 23:01:00,67.4,64.4,30.05,NNE,23,0.0,0.0,90,0.00,,,0.00,Wunderground v.1.13,2013-08-03 03:01:00,
2013-08-02 23:06:00,67.3,64.6,30.05,NNE,23,0.0,0.0,91,0.00,,,0.00,Wunderground v.1.13,2013-08-03 03:06:00,
2013-08-02 23:12:00,67.2,64.5,30.05,NNE,23,0.0,0.0,91,0.00,,,0.00,Wunderground v.1.13,2013-08-03 03:12:00,
2013-08-02 23:17:00,67.0,64.3,30.06,NNE,23,0.0,0.0,91,0.00,,,0.00,Wunderground v.1.13,2013-08-03 03:17:00,
2013-08-02 23:22:00,66.9,64.5,30.05,NNE,23,0.0,0.0,92,0.00,,,0.00,Wunderground v.1.13,2013-08-03 03:22:00,
2013-08-02 23:28:00,66.8,64.4,30.05,NNE,23,0.0,0.0,92,0.00,,,0.00,Wunderground v.1.13,2013-08-03 03:28:00,
2013-08-02 23:33:00,66.7,64.3,30.05,NNE,23,0.0,0.0,92,0.00,,,0.00,Wunderground v.1.13,2013-08-03 03:33:00,
2013-08-02 23:39:00,66.6,64.2,30.05,NNE,23,0.0,0.0,92,0.00,,,0.00,Wunderground v.1.13,2013-08-03 03:39:00,
2013-08-02 23:44:00,66.5,64.1,30.05,NNE,23,0.0,0.0,92,0.00,,,0.00,Wunderground v.1.13,2013-08-03 03:44:00,
2013-08-02 23:49:00,66.3,63.9,30.05,NNE,23,0.0,0.0,92,0.00,,,0.00,Wunderground v.1.13,2013-08-03 03:49:00,
2013-08-02 23:55:00,66.2,63.8,30.06,NNE,23,0.0,0.0,92,0.00,,,0.00,Wunderground v.1.13,2013-08-03 03:55:00,